Wilson Bremen — 9HJV9 — position and weather

sailwx.info

Track history (hours):
 
Tides and Currents Weather Stations Pressure Air Temp Water Temp Dewpoint Dewpoint Depression Visibility Wind Speed Wind Dir Waves Ship Positions

Wilson Bremen

Last reported at 2018-Feb-21 11:30 UTC. Time now 2018-Feb-21 11:46 UTC.
Position N 43°40' W 005°23'.

Length 88 m; draft 4.8 m.

Type: Cargo ship. MMSI: 249076000.

Date/timePositionNaut miles runAvg speedWind from/ knotsBaromVisibWave heightAir tempDewpointWater temp
2018-Feb-21 11:30N 43°40' W 005°23'4 8.8
2018-Feb-21 11:00N 43°41' W 005°29'5 9.0
2018-Feb-21 10:29N 43°41' W 005°36'4 9.1
2018-Feb-21 10:00N 43°42' W 005°42'5 9.5
2018-Feb-21 09:30N 43°42' W 005°48'6 9.1
2018-Feb-21 08:53N 43°43' W 005°56'3 9.0
2018-Feb-21 08:30N 43°43' W 006°01'5 8.8
2018-Feb-21 08:00N 43°43' W 006°07'195 5.6
2018-Feb-19 21:18N 41°13' W 008°55'5 8.5
2018-Feb-19 20:42N 41°08' W 008°54'5 8.4
2018-Feb-19 20:06N 41°03' W 008°53'3 8.3
2018-Feb-19 19:46N 41°00' W 008°52'  
2018-Feb-16 00:36N 50°22' W 005°56'1 6.9
2018-Feb-16 00:28N 50°23' W 005°55'3 6.9
2018-Feb-16 00:00N 50°25' W 005°51'4 7.3
2018-Feb-15 23:30N 50°27' W 005°46'4 7.6
2018-Feb-15 23:00N 50°29' W 005°42'4 7.6
2018-Feb-15 22:30N 50°32' W 005°37'4 7.6
2018-Feb-15 22:00N 50°34' W 005°33'4 7.8
2018-Feb-15 21:30N 50°37' W 005°28'4 7.8
2018-Feb-15 21:00N 50°39' W 005°23'4 7.6
2018-Feb-15 20:30N 50°42' W 005°18'4 7.3
2018-Feb-15 20:00N 50°44' W 005°14'3 7.0
2018-Feb-15 19:30N 50°46' W 005°10'3 6.5
2018-Feb-15 19:00N 50°48' W 005°06'3 6.1
2018-Feb-15 18:30N 50°50' W 005°02'3 6.1
2018-Feb-15 18:00N 50°52' W 004°58'3 5.5
2018-Feb-15 17:30N 50°54' W 004°55'3 5.2
2018-Feb-15 17:00N 50°55' W 004°52'3 5.1
2018-Feb-15 16:30N 50°57' W 004°49'3 5.1
2018-Feb-15 16:00N 50°59' W 004°46'2 5.0
2018-Feb-15 15:30N 51°00' W 004°43'2 4.9
2018-Feb-15 15:00N 51°02' W 004°40'2 4.8
2018-Feb-15 14:30N 51°03' W 004°37'3 5.2
2018-Feb-15 14:00N 51°05' W 004°34'3 5.3
2018-Feb-15 13:30N 51°07' W 004°30'3 6.4
2018-Feb-15 13:00N 51°09' W 004°26'3 7.0
2018-Feb-15 12:30N 51°11' W 004°22'4 7.2
2018-Feb-15 11:58N 51°13' W 004°17'15 8.7
2018-Feb-15 10:19N 51°18' W 003°55'2411.5
2018-Feb-15 08:11N 51°22' W 003°17'2 9.1
2018-Feb-15 07:59N 51°23' W 003°15'7 9.6
2018-Feb-15 07:12N 51°28' W 003°06'2 9.6
2018-Feb-15 07:00N 51°29' W 003°03'4 8.5
2018-Feb-15 06:31N 51°32' W 002°58'2 3.6
2018-Feb-15 06:00N 51°34' W 002°58'0 0.0
2018-Feb-15 05:24N 51°34' W 002°58'0 0.0
2018-Feb-15 05:00N 51°34' W 002°58'0 0.0
2018-Feb-15 04:30N 51°34' W 002°58'0 0.0
2018-Feb-15 04:00N 51°34' W 002°58'0 0.0
2018-Feb-15 03:30N 51°34' W 002°58'0 0.0
2018-Feb-15 03:00N 51°34' W 002°58'0 0.0
2018-Feb-15 02:30N 51°34' W 002°58'0 0.0
2018-Feb-15 02:00N 51°34' W 002°58'0 0.0
2018-Feb-15 01:30N 51°34' W 002°58'0 0.0
2018-Feb-15 01:00N 51°34' W 002°58'0 0.0
2018-Feb-15 00:30N 51°34' W 002°58'0 0.0
2018-Feb-15 00:00N 51°34' W 002°58'0 0.0
2018-Feb-14 23:30N 51°34' W 002°58'0 0.0
2018-Feb-14 21:54N 51°34' W 002°58'0 0.0
2018-Feb-14 21:12N 51°34' W 002°58'0 0.0
2018-Feb-14 20:48N 51°34' W 002°58'0 0.0
2018-Feb-14 20:12N 51°34' W 002°58'0 0.0
2018-Feb-14 19:48N 51°34' W 002°58'0 0.0
2018-Feb-14 19:24N 51°34' W 002°58'0 0.0
2018-Feb-14 19:00N 51°34' W 002°58'0 0.0
2018-Feb-14 18:12N 51°34' W 002°58'0 0.0
2018-Feb-14 18:00N 51°34' W 002°58'0 0.0
2018-Feb-14 17:30N 51°34' W 002°58'0 0.0
2018-Feb-14 17:00N 51°34' W 002°58'0 0.0
2018-Feb-14 16:24N 51°34' W 002°58'0 0.0
2018-Feb-14 14:06N 51°34' W 002°58'0 0.0
2018-Feb-14 13:48N 51°34' W 002°58'0 0.0
2018-Feb-14 13:24N 51°34' W 002°58'0 0.0
2018-Feb-14 12:48N 51°34' W 002°58'0 0.0
2018-Feb-14 11:45N 51°34' W 002°58'0 0.0
2018-Feb-14 11:27N 51°34' W 002°58'0 0.0
2018-Feb-14 11:00N 51°34' W 002°58'0 0.0
2018-Feb-14 10:30N 51°34' W 002°58'0 0.0
2018-Feb-14 10:00N 51°34' W 002°58'0 0.0
2018-Feb-14 08:36N 51°34' W 002°58'0 0.1
2018-Feb-14 08:30N 51°34' W 002°58'0 0.0
2018-Feb-14 07:54N 51°34' W 002°58'0 0.0
2018-Feb-14 07:30N 51°34' W 002°58'0 0.0
2018-Feb-14 07:00N 51°34' W 002°58'0 0.0
2018-Feb-14 06:30N 51°34' W 002°58'0 0.3
2018-Feb-14 05:54N 51°34' W 002°58'0 0.2
2018-Feb-14 04:54N 51°34' W 002°58'0 0.0
2018-Feb-14 02:42N 51°34' W 002°58'0 0.0
2018-Feb-13 21:45N 51°34' W 002°58'0 0.0
2018-Feb-13 19:18N 51°34' W 002°58'0 0.0
2018-Feb-13 19:00N 51°34' W 002°58'0 0.0
2018-Feb-13 18:30N 51°34' W 002°58'0 0.0
2018-Feb-13 18:00N 51°34' W 002°58'1 1.3
2018-Feb-13 17:29N 51°33' W 002°59'0 0.9
2018-Feb-13 17:00N 51°33' W 002°59'0 0.4
2018-Feb-13 16:25N 51°33' W 002°59'0 0.0
2018-Feb-13 15:55N 51°33' W 002°59'0 0.0
2018-Feb-13 15:25N 51°33' W 002°59'0 0.0
2018-Feb-13 14:55N 51°33' W 002°59'0 0.0
2018-Feb-13 14:25N 51°33' W 002°59'0 0.0
2018-Feb-13 13:55N 51°33' W 002°59'0 0.0
2018-Feb-13 13:25N 51°33' W 002°59'0 0.0
2018-Feb-13 12:55N 51°33' W 002°59'0 0.0
2018-Feb-13 12:25N 51°33' W 002°59'0 0.0
2018-Feb-13 11:55N 51°33' W 002°59'0 0.0
2018-Feb-13 11:25N 51°33' W 002°59'0 0.0
2018-Feb-13 10:55N 51°33' W 002°59'0 0.0
2018-Feb-13 10:25N 51°33' W 002°59'0 0.0
2018-Feb-13 09:55N 51°33' W 002°59'0 0.0
2018-Feb-13 09:25N 51°33' W 002°59'0 0.0
2018-Feb-13 08:55N 51°33' W 002°59'0 0.0
2018-Feb-13 08:25N 51°33' W 002°59'0 0.0
2018-Feb-13 07:55N 51°33' W 002°59'0 0.0
2018-Feb-13 07:25N 51°33' W 002°59'0 0.0
2018-Feb-13 06:55N 51°33' W 002°59'0 0.0
2018-Feb-13 06:25N 51°33' W 002°59'0 0.0
2018-Feb-13 05:55N 51°33' W 002°59'0 0.0
2018-Feb-13 05:25N 51°33' W 002°59'0 0.0
2018-Feb-13 04:55N 51°33' W 002°59'0 0.0
2018-Feb-13 04:25N 51°33' W 002°59'0 0.0
2018-Feb-13 03:55N 51°33' W 002°59'0 0.0
2018-Feb-13 03:25N 51°33' W 002°59'0 0.0
2018-Feb-13 02:55N 51°33' W 002°59'0 0.0
2018-Feb-13 02:25N 51°33' W 002°59'0 0.0
2018-Feb-13 01:55N 51°33' W 002°59'0 0.0
2018-Feb-13 01:25N 51°33' W 002°59'0 0.0
2018-Feb-13 00:55N 51°33' W 002°59'0 0.0
2018-Feb-13 00:25N 51°33' W 002°59'0 0.0
2018-Feb-12 23:55N 51°33' W 002°59'0 0.0
2018-Feb-12 23:25N 51°33' W 002°59'0 0.0
2018-Feb-12 22:55N 51°33' W 002°59'0 0.0
2018-Feb-12 22:25N 51°33' W 002°59'0 0.0
2018-Feb-12 21:55N 51°33' W 002°59'0 0.0
2018-Feb-12 21:25N 51°33' W 002°59'0 0.0
2018-Feb-12 20:55N 51°33' W 002°59'0 0.0
2018-Feb-12 20:25N 51°33' W 002°59'0 0.0
2018-Feb-12 19:55N 51°33' W 002°59'0 0.0
2018-Feb-12 19:25N 51°33' W 002°59'0 0.0
2018-Feb-12 18:49N 51°33' W 002°59'0 0.0
2018-Feb-12 18:25N 51°33' W 002°59'0 0.0
2018-Feb-12 17:55N 51°33' W 002°59'0 0.0
2018-Feb-12 17:25N 51°33' W 002°59'0 0.0
2018-Feb-12 16:55N 51°33' W 002°59'0 0.0
2018-Feb-12 16:25N 51°33' W 002°59'0 0.0
2018-Feb-12 15:55N 51°33' W 002°59'0 0.0
2018-Feb-12 15:13N 51°33' W 002°59'0 0.0
2018-Feb-12 14:55N 51°33' W 002°59'0 0.0
2018-Feb-12 14:19N 51°33' W 002°59'0 0.0
2018-Feb-12 13:55N 51°33' W 002°59'0 0.0
2018-Feb-12 13:25N 51°33' W 002°59'0 0.0
2018-Feb-12 12:55N 51°33' W 002°59'0 0.0
2018-Feb-12 12:25N 51°33' W 002°59'0 0.0
2018-Feb-12 11:55N 51°33' W 002°59'0 0.0
2018-Feb-12 11:25N 51°33' W 002°59'0 0.0
2018-Feb-12 10:55N 51°33' W 002°59'0 0.0
2018-Feb-12 10:25N 51°33' W 002°59'0 0.0
2018-Feb-12 09:55N 51°33' W 002°59'0 0.0
2018-Feb-12 09:25N 51°33' W 002°59'0 0.0
2018-Feb-12 08:55N 51°33' W 002°59'0 0.0
2018-Feb-12 08:25N 51°33' W 002°59'0 0.0
2018-Feb-12 07:55N 51°33' W 002°59'0 0.0
2018-Feb-12 07:25N 51°33' W 002°59'0 0.0
2018-Feb-12 06:55N 51°33' W 002°59'0 0.0
2018-Feb-12 06:13N 51°33' W 002°59'0 0.0
2018-Feb-12 05:55N 51°33' W 002°59'0 0.0
2018-Feb-12 05:25N 51°33' W 002°59'0 0.0
2018-Feb-12 04:55N 51°33' W 002°59'0 0.0
2018-Feb-12 04:25N 51°33' W 002°59'0 0.0
2018-Feb-12 03:55N 51°33' W 002°59'0 0.0
2018-Feb-12 03:25N 51°33' W 002°59'0 0.0
2018-Feb-12 02:55N 51°33' W 002°59'0 0.0
2018-Feb-12 02:25N 51°33' W 002°59'0 0.0
2018-Feb-12 01:55N 51°33' W 002°59'0 0.0
2018-Feb-12 01:25N 51°33' W 002°59'0 0.0
2018-Feb-12 00:55N 51°33' W 002°59'0 0.0
2018-Feb-12 00:25N 51°33' W 002°59'0 0.0
2018-Feb-11 23:55N 51°33' W 002°59'0 0.0
2018-Feb-11 23:25N 51°33' W 002°59'0 0.0
2018-Feb-11 22:55N 51°33' W 002°59'0 0.0
2018-Feb-11 22:25N 51°33' W 002°59'0 0.0
2018-Feb-11 21:55N 51°33' W 002°59'0 0.0
2018-Feb-11 21:19N 51°33' W 002°59'0 0.0
2018-Feb-11 20:55N 51°33' W 002°59'0 0.0
2018-Feb-11 20:25N 51°33' W 002°59'0 0.0
2018-Feb-11 19:55N 51°33' W 002°59'0 0.0
2018-Feb-11 19:25N 51°33' W 002°59'0 0.0
2018-Feb-11 18:55N 51°33' W 002°59'0 0.0
2018-Feb-11 18:13N 51°33' W 002°59'0 0.0
2018-Feb-11 17:55N 51°33' W 002°59'0 0.0
2018-Feb-11 17:25N 51°33' W 002°59'0 0.0
2018-Feb-11 16:43N 51°33' W 002°59'0 0.0
2018-Feb-11 16:19N 51°33' W 002°59'0 0.0
2018-Feb-11 15:55N 51°33' W 002°59'0 0.0
2018-Feb-11 15:25N 51°33' W 002°59'0 0.0
2018-Feb-11 14:55N 51°33' W 002°59'0 0.0
2018-Feb-11 14:25N 51°33' W 002°59'0 0.0
2018-Feb-11 13:55N 51°33' W 002°59'0 0.0
2018-Feb-11 13:25N 51°33' W 002°59'0 0.0
2018-Feb-11 12:55N 51°33' W 002°59'0 0.0
2018-Feb-11 12:25N 51°33' W 002°59'0 0.0
2018-Feb-11 11:55N 51°33' W 002°59'  
Track history (hours):
 
Tides and Currents Weather Stations Pressure Air Temp Water Temp Dewpoint Dewpoint Depression Visibility Wind Speed Wind Dir Waves Ship Positions

Wilson Bremen

Last reported at 2018-Feb-21 11:30 UTC. Time now 2018-Feb-21 11:46 UTC.
Position N 43°40' W 005°23'.

Length 88 m; draft 4.8 m.

Type: Cargo ship. MMSI: 249076000.

Date/timePositionNaut miles runAvg speedWind from/ knotsBaromVisibWave heightAir tempDewpointWater temp
2018-Feb-21 11:30N 43°40' W 005°23'4 8.8
2018-Feb-21 11:00N 43°41' W 005°29'5 9.0
2018-Feb-21 10:29N 43°41' W 005°36'4 9.1
2018-Feb-21 10:00N 43°42' W 005°42'5 9.5
2018-Feb-21 09:30N 43°42' W 005°48'6 9.1
2018-Feb-21 08:53N 43°43' W 005°56'3 9.0
2018-Feb-21 08:30N 43°43' W 006°01'5 8.8
2018-Feb-21 08:00N 43°43' W 006°07'195 5.6
2018-Feb-19 21:18N 41°13' W 008°55'5 8.5
2018-Feb-19 20:42N 41°08' W 008°54'5 8.4
2018-Feb-19 20:06N 41°03' W 008°53'3 8.3
2018-Feb-19 19:46N 41°00' W 008°52'  
2018-Feb-16 00:36N 50°22' W 005°56'1 6.9
2018-Feb-16 00:28N 50°23' W 005°55'3 6.9
2018-Feb-16 00:00N 50°25' W 005°51'4 7.3
2018-Feb-15 23:30N 50°27' W 005°46'4 7.6
2018-Feb-15 23:00N 50°29' W 005°42'4 7.6
2018-Feb-15 22:30N 50°32' W 005°37'4 7.6
2018-Feb-15 22:00N 50°34' W 005°33'4 7.8
2018-Feb-15 21:30N 50°37' W 005°28'4 7.8
2018-Feb-15 21:00N 50°39' W 005°23'4 7.6
2018-Feb-15 20:30N 50°42' W 005°18'4 7.3
2018-Feb-15 20:00N 50°44' W 005°14'3 7.0
2018-Feb-15 19:30N 50°46' W 005°10'3 6.5
2018-Feb-15 19:00N 50°48' W 005°06'3 6.1
2018-Feb-15 18:30N 50°50' W 005°02'3 6.1
2018-Feb-15 18:00N 50°52' W 004°58'3 5.5
2018-Feb-15 17:30N 50°54' W 004°55'3 5.2
2018-Feb-15 17:00N 50°55' W 004°52'3 5.1
2018-Feb-15 16:30N 50°57' W 004°49'3 5.1
2018-Feb-15 16:00N 50°59' W 004°46'2 5.0
2018-Feb-15 15:30N 51°00' W 004°43'2 4.9
2018-Feb-15 15:00N 51°02' W 004°40'2 4.8
2018-Feb-15 14:30N 51°03' W 004°37'3 5.2
2018-Feb-15 14:00N 51°05' W 004°34'3 5.3
2018-Feb-15 13:30N 51°07' W 004°30'3 6.4
2018-Feb-15 13:00N 51°09' W 004°26'3 7.0
2018-Feb-15 12:30N 51°11' W 004°22'4 7.2
2018-Feb-15 11:58N 51°13' W 004°17'15 8.7
2018-Feb-15 10:19N 51°18' W 003°55'2411.5
2018-Feb-15 08:11N 51°22' W 003°17'2 9.1
2018-Feb-15 07:59N 51°23' W 003°15'7 9.6
2018-Feb-15 07:12N 51°28' W 003°06'2 9.6
2018-Feb-15 07:00N 51°29' W 003°03'4 8.5
2018-Feb-15 06:31N 51°32' W 002°58'2 3.6
2018-Feb-15 06:00N 51°34' W 002°58'0 0.0
2018-Feb-15 05:24N 51°34' W 002°58'0 0.0
2018-Feb-15 05:00N 51°34' W 002°58'0 0.0
2018-Feb-15 04:30N 51°34' W 002°58'0 0.0
2018-Feb-15 04:00N 51°34' W 002°58'0 0.0
2018-Feb-15 03:30N 51°34' W 002°58'0 0.0
2018-Feb-15 03:00N 51°34' W 002°58'0 0.0
2018-Feb-15 02:30N 51°34' W 002°58'0 0.0
2018-Feb-15 02:00N 51°34' W 002°58'0 0.0
2018-Feb-15 01:30N 51°34' W 002°58'0 0.0
2018-Feb-15 01:00N 51°34' W 002°58'0 0.0
2018-Feb-15 00:30N 51°34' W 002°58'0 0.0
2018-Feb-15 00:00N 51°34' W 002°58'0 0.0
2018-Feb-14 23:30N 51°34' W 002°58'0 0.0
2018-Feb-14 21:54N 51°34' W 002°58'0 0.0
2018-Feb-14 21:12N 51°34' W 002°58'0 0.0
2018-Feb-14 20:48N 51°34' W 002°58'0 0.0
2018-Feb-14 20:12N 51°34' W 002°58'0 0.0
2018-Feb-14 19:48N 51°34' W 002°58'0 0.0
2018-Feb-14 19:24N 51°34' W 002°58'0 0.0
2018-Feb-14 19:00N 51°34' W 002°58'0 0.0
2018-Feb-14 18:12N 51°34' W 002°58'0 0.0
2018-Feb-14 18:00N 51°34' W 002°58'0 0.0
2018-Feb-14 17:30N 51°34' W 002°58'0 0.0
2018-Feb-14 17:00N 51°34' W 002°58'0 0.0
2018-Feb-14 16:24N 51°34' W 002°58'0 0.0
2018-Feb-14 14:06N 51°34' W 002°58'0 0.0
2018-Feb-14 13:48N 51°34' W 002°58'0 0.0
2018-Feb-14 13:24N 51°34' W 002°58'0 0.0
2018-Feb-14 12:48N 51°34' W 002°58'0 0.0
2018-Feb-14 11:45N 51°34' W 002°58'0 0.0
2018-Feb-14 11:27N 51°34' W 002°58'0 0.0
2018-Feb-14 11:00N 51°34' W 002°58'0 0.0
2018-Feb-14 10:30N 51°34' W 002°58'0 0.0
2018-Feb-14 10:00N 51°34' W 002°58'0 0.0
2018-Feb-14 08:36N 51°34' W 002°58'0 0.1
2018-Feb-14 08:30N 51°34' W 002°58'0 0.0
2018-Feb-14 07:54N 51°34' W 002°58'0 0.0
2018-Feb-14 07:30N 51°34' W 002°58'0 0.0
2018-Feb-14 07:00N 51°34' W 002°58'0 0.0
2018-Feb-14 06:30N 51°34' W 002°58'0 0.3
2018-Feb-14 05:54N 51°34' W 002°58'0 0.2
2018-Feb-14 04:54N 51°34' W 002°58'0 0.0
2018-Feb-14 02:42N 51°34' W 002°58'0 0.0
2018-Feb-13 21:45N 51°34' W 002°58'0 0.0
2018-Feb-13 19:18N 51°34' W 002°58'0 0.0
2018-Feb-13 19:00N 51°34' W 002°58'0 0.0
2018-Feb-13 18:30N 51°34' W 002°58'0 0.0
2018-Feb-13 18:00N 51°34' W 002°58'1 1.3
2018-Feb-13 17:29N 51°33' W 002°59'0 0.9
2018-Feb-13 17:00N 51°33' W 002°59'0 0.4
2018-Feb-13 16:25N 51°33' W 002°59'0 0.0
2018-Feb-13 15:55N 51°33' W 002°59'0 0.0
2018-Feb-13 15:25N 51°33' W 002°59'0 0.0
2018-Feb-13 14:55N 51°33' W 002°59'0 0.0
2018-Feb-13 14:25N 51°33' W 002°59'0 0.0
2018-Feb-13 13:55N 51°33' W 002°59'0 0.0
2018-Feb-13 13:25N 51°33' W 002°59'0 0.0
2018-Feb-13 12:55N 51°33' W 002°59'0 0.0
2018-Feb-13 12:25N 51°33' W 002°59'0 0.0
2018-Feb-13 11:55N 51°33' W 002°59'0 0.0
2018-Feb-13 11:25N 51°33' W 002°59'0 0.0
2018-Feb-13 10:55N 51°33' W 002°59'0 0.0
2018-Feb-13 10:25N 51°33' W 002°59'0 0.0
2018-Feb-13 09:55N 51°33' W 002°59'0 0.0
2018-Feb-13 09:25N 51°33' W 002°59'0 0.0
2018-Feb-13 08:55N 51°33' W 002°59'0 0.0
2018-Feb-13 08:25N 51°33' W 002°59'0 0.0
2018-Feb-13 07:55N 51°33' W 002°59'0 0.0
2018-Feb-13 07:25N 51°33' W 002°59'0 0.0
2018-Feb-13 06:55N 51°33' W 002°59'0 0.0
2018-Feb-13 06:25N 51°33' W 002°59'0 0.0
2018-Feb-13 05:55N 51°33' W 002°59'0 0.0
2018-Feb-13 05:25N 51°33' W 002°59'0 0.0
2018-Feb-13 04:55N 51°33' W 002°59'0 0.0
2018-Feb-13 04:25N 51°33' W 002°59'0 0.0
2018-Feb-13 03:55N 51°33' W 002°59'0 0.0
2018-Feb-13 03:25N 51°33' W 002°59'0 0.0
2018-Feb-13 02:55N 51°33' W 002°59'0 0.0
2018-Feb-13 02:25N 51°33' W 002°59'0 0.0
2018-Feb-13 01:55N 51°33' W 002°59'0 0.0
2018-Feb-13 01:25N 51°33' W 002°59'0 0.0
2018-Feb-13 00:55N 51°33' W 002°59'0 0.0
2018-Feb-13 00:25N 51°33' W 002°59'0 0.0
2018-Feb-12 23:55N 51°33' W 002°59'0 0.0
2018-Feb-12 23:25N 51°33' W 002°59'0 0.0
2018-Feb-12 22:55N 51°33' W 002°59'0 0.0
2018-Feb-12 22:25N 51°33' W 002°59'0 0.0
2018-Feb-12 21:55N 51°33' W 002°59'0 0.0
2018-Feb-12 21:25N 51°33' W 002°59'0 0.0
2018-Feb-12 20:55N 51°33' W 002°59'0 0.0
2018-Feb-12 20:25N 51°33' W 002°59'0 0.0
2018-Feb-12 19:55N 51°33' W 002°59'0 0.0
2018-Feb-12 19:25N 51°33' W 002°59'0 0.0
2018-Feb-12 18:49N 51°33' W 002°59'0 0.0
2018-Feb-12 18:25N 51°33' W 002°59'0 0.0
2018-Feb-12 17:55N 51°33' W 002°59'0 0.0
2018-Feb-12 17:25N 51°33' W 002°59'0 0.0
2018-Feb-12 16:55N 51°33' W 002°59'0 0.0
2018-Feb-12 16:25N 51°33' W 002°59'0 0.0
2018-Feb-12 15:55N 51°33' W 002°59'0 0.0
2018-Feb-12 15:13N 51°33' W 002°59'0 0.0
2018-Feb-12 14:55N 51°33' W 002°59'0 0.0
2018-Feb-12 14:19N 51°33' W 002°59'0 0.0
2018-Feb-12 13:55N 51°33' W 002°59'0 0.0
2018-Feb-12 13:25N 51°33' W 002°59'0 0.0
2018-Feb-12 12:55N 51°33' W 002°59'0 0.0
2018-Feb-12 12:25N 51°33' W 002°59'0 0.0
2018-Feb-12 11:55N 51°33' W 002°59'0 0.0
2018-Feb-12 11:25N 51°33' W 002°59'0 0.0
2018-Feb-12 10:55N 51°33' W 002°59'0 0.0
2018-Feb-12 10:25N 51°33' W 002°59'0 0.0
2018-Feb-12 09:55N 51°33' W 002°59'0 0.0
2018-Feb-12 09:25N 51°33' W 002°59'0 0.0
2018-Feb-12 08:55N 51°33' W 002°59'0 0.0
2018-Feb-12 08:25N 51°33' W 002°59'0 0.0
2018-Feb-12 07:55N 51°33' W 002°59'0 0.0
2018-Feb-12 07:25N 51°33' W 002°59'0 0.0
2018-Feb-12 06:55N 51°33' W 002°59'0 0.0
2018-Feb-12 06:13N 51°33' W 002°59'0 0.0
2018-Feb-12 05:55N 51°33' W 002°59'0 0.0
2018-Feb-12 05:25N 51°33' W 002°59'0 0.0
2018-Feb-12 04:55N 51°33' W 002°59'0 0.0
2018-Feb-12 04:25N 51°33' W 002°59'0 0.0
2018-Feb-12 03:55N 51°33' W 002°59'0 0.0
2018-Feb-12 03:25N 51°33' W 002°59'0 0.0
2018-Feb-12 02:55N 51°33' W 002°59'0 0.0
2018-Feb-12 02:25N 51°33' W 002°59'0 0.0
2018-Feb-12 01:55N 51°33' W 002°59'0 0.0
2018-Feb-12 01:25N 51°33' W 002°59'0 0.0
2018-Feb-12 00:55N 51°33' W 002°59'0 0.0
2018-Feb-12 00:25N 51°33' W 002°59'0 0.0
2018-Feb-11 23:55N 51°33' W 002°59'0 0.0
2018-Feb-11 23:25N 51°33' W 002°59'0 0.0
2018-Feb-11 22:55N 51°33' W 002°59'0 0.0
2018-Feb-11 22:25N 51°33' W 002°59'0 0.0
2018-Feb-11 21:55N 51°33' W 002°59'0 0.0
2018-Feb-11 21:19N 51°33' W 002°59'0 0.0
2018-Feb-11 20:55N 51°33' W 002°59'0 0.0
2018-Feb-11 20:25N 51°33' W 002°59'0 0.0
2018-Feb-11 19:55N 51°33' W 002°59'0 0.0
2018-Feb-11 19:25N 51°33' W 002°59'0 0.0
2018-Feb-11 18:55N 51°33' W 002°59'0 0.0
2018-Feb-11 18:13N 51°33' W 002°59'0 0.0
2018-Feb-11 17:55N 51°33' W 002°59'0 0.0
2018-Feb-11 17:25N 51°33' W 002°59'0 0.0
2018-Feb-11 16:43N 51°33' W 002°59'0 0.0
2018-Feb-11 16:19N 51°33' W 002°59'0 0.0
2018-Feb-11 15:55N 51°33' W 002°59'0 0.0
2018-Feb-11 15:25N 51°33' W 002°59'0 0.0
2018-Feb-11 14:55N 51°33' W 002°59'0 0.0
2018-Feb-11 14:25N 51°33' W 002°59'0 0.0
2018-Feb-11 13:55N 51°33' W 002°59'0 0.0
2018-Feb-11 13:25N 51°33' W 002°59'0 0.0
2018-Feb-11 12:55N 51°33' W 002°59'0 0.0
2018-Feb-11 12:25N 51°33' W 002°59'0 0.0
2018-Feb-11 11:55N 51°33' W 002°59'  

Dump ship's entire track history